logo
Search for airport 
image banner adimage banner adimage banner ad
image banner ad

ED2023 - Freiberg Kkrhs.

Located in Freiberg, Germany

ICAO - , IATA -

Data provided by Airmate  

General information

Coordinates: N50°55'13" E13°21'7"
Elevation is 1343 feet MSL.
 
View others Airports in Saxony

Operational data

Special qualification required
Current time UTC:
Current local time:
Weather at : EDDC - Dresden ( 38 km )
METAR: EDDC 231820Z AUTO 20006KT 170V240 CAVOK 22/16 Q1014 NOSIG
TAF: TAF EDDC 231700Z 2318/2418 14005KT CAVOK BECMG 2318/2321 25006KT TEMPO 2318/2322 27020G35KT 4000 TSRA BKN040CB BECMG 2400/2403 BKN010 PROB30 TEMPO 2400/2406 2000 SHRA BKN007TCU BECMG 2406/2409 30011KT BKN020
View NOTAMs / SUP AIP / TFR affecting this airport [VIEW]
Communications frequencies: [VIEW]

Runways:

Airport contact information

Address: Freiberg Germany

Satellite view of ED2023